sensor_id;sensor_type;location;lat;lon;timestamp;pressure;altitude;pressure_sealevel;temperature;humidity
42761;BME280;31672;47.638;19.026;2023-09-08T00:03:50;100802.69;;;15.64;82.37
42761;BME280;31672;47.638;19.026;2023-09-08T00:08:54;100796.09;;;15.51;82.69
42761;BME280;31672;47.638;19.026;2023-09-08T00:13:57;100814.22;;;15.49;82.97
42761;BME280;31672;47.638;19.026;2023-09-08T00:19:01;100805.44;;;15.41;83.77
42761;BME280;31672;47.638;19.026;2023-09-08T00:24:05;100807.19;;;15.34;83.91
42761;BME280;31672;47.638;19.026;2023-09-08T00:29:09;100805.25;;;15.27;84.65
42761;BME280;31672;47.638;19.026;2023-09-08T00:34:12;100814.94;;;15.29;84.54
42761;BME280;31672;47.638;19.026;2023-09-08T00:39:16;100804.97;;;15.22;84.92
42761;BME280;31672;47.638;19.026;2023-09-08T00:44:20;100798.69;;;15.15;85.18
42761;BME280;31672;47.638;19.026;2023-09-08T00:49:24;100793.63;;;15.06;86.16
42761;BME280;31672;47.638;19.026;2023-09-08T00:54:28;100798.97;;;15.06;86.42
42761;BME280;31672;47.638;19.026;2023-09-08T00:59:32;100790.47;;;15.02;86.48
42761;BME280;31672;47.638;19.026;2023-09-08T01:04:37;100787.97;;;15.01;86.51
42761;BME280;31672;47.638;19.026;2023-09-08T01:09:46;100783.91;;;15.05;86.52
42761;BME280;31672;47.638;19.026;2023-09-08T01:14:51;100775.72;;;15.06;86.70
42761;BME280;31672;47.638;19.026;2023-09-08T01:19:56;100779.03;;;15.08;86.82
42761;BME280;31672;47.638;19.026;2023-09-08T01:25:21;100779.56;;;15.04;87.18
42761;BME280;31672;47.638;19.026;2023-09-08T01:30:28;100775.78;;;14.98;86.99
42761;BME280;31672;47.638;19.026;2023-09-08T01:35:36;100778.00;;;14.94;86.69
42761;BME280;31672;47.638;19.026;2023-09-08T01:40:40;100769.56;;;14.83;86.65
42761;BME280;31672;47.638;19.026;2023-09-08T01:45:43;100761.97;;;14.71;87.27
42761;BME280;31672;47.638;19.026;2023-09-08T01:50:47;100765.00;;;14.68;87.38
42761;BME280;31672;47.638;19.026;2023-09-08T01:55:51;100763.63;;;14.58;87.62
42761;BME280;31672;47.638;19.026;2023-09-08T02:00:55;100772.00;;;14.55;88.07
42761;BME280;31672;47.638;19.026;2023-09-08T02:06:04;100769.84;;;14.50;87.95
42761;BME280;31672;47.638;19.026;2023-09-08T02:11:07;100770.22;;;14.47;88.81
42761;BME280;31672;47.638;19.026;2023-09-08T02:16:16;100769.06;;;14.41;88.88
42761;BME280;31672;47.638;19.026;2023-09-08T02:21:21;100775.75;;;14.37;88.81
42761;BME280;31672;47.638;19.026;2023-09-08T02:26:25;100772.31;;;14.29;89.23
42761;BME280;31672;47.638;19.026;2023-09-08T02:31:30;100777.38;;;14.24;89.50
42761;BME280;31672;47.638;19.026;2023-09-08T02:36:34;100786.63;;;14.13;89.64
42761;BME280;31672;47.638;19.026;2023-09-08T02:41:38;100784.47;;;14.08;90.33
42761;BME280;31672;47.638;19.026;2023-09-08T02:46:42;100792.16;;;14.11;90.71
42761;BME280;31672;47.638;19.026;2023-09-08T02:51:46;100776.81;;;14.05;90.87
42761;BME280;31672;47.638;19.026;2023-09-08T02:56:51;100777.88;;;13.96;91.62
42761;BME280;31672;47.638;19.026;2023-09-08T03:01:55;100774.06;;;13.90;92.39
42761;BME280;31672;47.638;19.026;2023-09-08T03:06:59;100763.91;;;13.86;93.35
42761;BME280;31672;47.638;19.026;2023-09-08T03:12:04;100766.41;;;13.87;93.41
42761;BME280;31672;47.638;19.026;2023-09-08T03:17:08;100760.56;;;13.84;93.73
42761;BME280;31672;47.638;19.026;2023-09-08T03:22:13;100761.59;;;13.83;94.05
42761;BME280;31672;47.638;19.026;2023-09-08T03:27:16;100758.59;;;13.78;93.94
42761;BME280;31672;47.638;19.026;2023-09-08T03:32:20;100773.09;;;13.83;94.15
42761;BME280;31672;47.638;19.026;2023-09-08T03:37:24;100773.09;;;13.83;94.31
42761;BME280;31672;47.638;19.026;2023-09-08T03:42:30;100782.44;;;13.87;94.43
42761;BME280;31672;47.638;19.026;2023-09-08T03:47:34;100782.25;;;13.89;94.32
42761;BME280;31672;47.638;19.026;2023-09-08T03:52:38;100776.06;;;13.88;94.71
42761;BME280;31672;47.638;19.026;2023-09-08T03:57:42;100778.25;;;13.85;94.38
42761;BME280;31672;47.638;19.026;2023-09-08T04:02:45;100777.59;;;13.83;94.45
42761;BME280;31672;47.638;19.026;2023-09-08T04:07:49;100796.81;;;13.86;94.41
42761;BME280;31672;47.638;19.026;2023-09-08T04:12:53;100788.28;;;13.83;94.77
42761;BME280;31672;47.638;19.026;2023-09-08T04:18:00;100796.94;;;13.85;94.91
42761;BME280;31672;47.638;19.026;2023-09-08T04:23:04;100794.97;;;13.79;95.06
42761;BME280;31672;47.638;19.026;2023-09-08T04:28:07;100788.50;;;13.73;95.23
42761;BME280;31672;47.638;19.026;2023-09-08T04:33:11;100802.34;;;13.77;95.31
42761;BME280;31672;47.638;19.026;2023-09-08T04:38:16;100799.34;;;13.80;95.82
42761;BME280;31672;47.638;19.026;2023-09-08T04:43:19;100801.13;;;13.87;96.42
42761;BME280;31672;47.638;19.026;2023-09-08T04:48:23;100815.97;;;13.90;96.37
42761;BME280;31672;47.638;19.026;2023-09-08T04:53:27;100793.91;;;13.96;96.79
42761;BME280;31672;47.638;19.026;2023-09-08T04:58:31;100810.38;;;14.08;97.24
42761;BME280;31672;47.638;19.026;2023-09-08T05:03:36;100810.34;;;14.16;97.81
42761;BME280;31672;47.638;19.026;2023-09-08T05:08:40;100808.09;;;14.28;97.74
42761;BME280;31672;47.638;19.026;2023-09-08T05:13:43;100803.50;;;14.36;97.91
42761;BME280;31672;47.638;19.026;2023-09-08T05:18:47;100810.13;;;14.49;97.90
42761;BME280;31672;47.638;19.026;2023-09-08T05:23:51;100787.50;;;14.59;97.70
42761;BME280;31672;47.638;19.026;2023-09-08T05:28:55;100801.69;;;14.83;97.98
42761;BME280;31672;47.638;19.026;2023-09-08T05:33:58;100818.53;;;15.06;97.97
42761;BME280;31672;47.638;19.026;2023-09-08T05:39:02;100805.97;;;15.21;97.99
42761;BME280;31672;47.638;19.026;2023-09-08T05:44:06;100813.75;;;15.46;97.60
42761;BME280;31672;47.638;19.026;2023-09-08T05:49:09;100817.56;;;15.66;96.96
42761;BME280;31672;47.638;19.026;2023-09-08T05:54:13;100805.66;;;15.84;96.48
42761;BME280;31672;47.638;19.026;2023-09-08T05:59:17;100805.03;;;16.03;96.20
42761;BME280;31672;47.638;19.026;2023-09-08T06:04:20;100811.72;;;16.28;95.89
42761;BME280;31672;47.638;19.026;2023-09-08T06:09:24;100807.63;;;16.54;95.51
42761;BME280;31672;47.638;19.026;2023-09-08T06:14:29;100804.19;;;16.81;95.15
42761;BME280;31672;47.638;19.026;2023-09-08T06:19:34;100815.13;;;17.08;94.29
42761;BME280;31672;47.638;19.026;2023-09-08T06:24:38;100813.22;;;17.30;93.89
42761;BME280;31672;47.638;19.026;2023-09-08T06:29:41;100804.31;;;17.57;93.33
42761;BME280;31672;47.638;19.026;2023-09-08T06:34:47;100814.84;;;17.94;92.56
42761;BME280;31672;47.638;19.026;2023-09-08T06:39:50;100814.94;;;18.27;90.71
42761;BME280;31672;47.638;19.026;2023-09-08T06:44:54;100804.03;;;18.61;89.70
42761;BME280;31672;47.638;19.026;2023-09-08T06:49:58;100796.81;;;18.88;88.52
42761;BME280;31672;47.638;19.026;2023-09-08T06:55:01;100790.38;;;19.16;88.05
42761;BME280;31672;47.638;19.026;2023-09-08T07:00:07;100791.13;;;19.43;86.70
42761;BME280;31672;47.638;19.026;2023-09-08T07:05:11;100804.09;;;19.79;83.84
42761;BME280;31672;47.638;19.026;2023-09-08T07:10:14;100794.88;;;20.00;81.06
42761;BME280;31672;47.638;19.026;2023-09-08T07:15:18;100788.50;;;20.26;79.46
42761;BME280;31672;47.638;19.026;2023-09-08T07:20:22;100783.63;;;20.48;76.55
42761;BME280;31672;47.638;19.026;2023-09-08T07:25:26;100778.28;;;20.66;74.44
42761;BME280;31672;47.638;19.026;2023-09-08T07:30:32;100767.78;;;20.83;73.50
42761;BME280;31672;47.638;19.026;2023-09-08T07:35:40;100761.50;;;21.07;72.98
42761;BME280;31672;47.638;19.026;2023-09-08T07:40:43;100759.84;;;21.31;70.92
42761;BME280;31672;47.638;19.026;2023-09-08T07:45:47;100768.69;;;21.57;68.73
42761;BME280;31672;47.638;19.026;2023-09-08T07:50:51;100757.41;;;21.78;67.53
42761;BME280;31672;47.638;19.026;2023-09-08T07:56:03;100764.19;;;21.99;66.36
42761;BME280;31672;47.638;19.026;2023-09-08T08:01:08;100760.41;;;22.18;65.77
42761;BME280;31672;47.638;19.026;2023-09-08T08:06:12;100761.53;;;22.41;64.97
42761;BME280;31672;47.638;19.026;2023-09-08T08:11:17;100764.63;;;22.56;61.48
42761;BME280;31672;47.638;19.026;2023-09-08T08:16:23;100759.94;;;22.63;62.59
42761;BME280;31672;47.638;19.026;2023-09-08T08:21:28;100758.31;;;22.86;62.69
42761;BME280;31672;47.638;19.026;2023-09-08T08:26:31;100758.78;;;23.06;59.74
42761;BME280;31672;47.638;19.026;2023-09-08T08:31:36;100754.53;;;23.22;60.30
42761;BME280;31672;47.638;19.026;2023-09-08T08:36:40;100749.31;;;23.44;60.02
42761;BME280;31672;47.638;19.026;2023-09-08T08:41:44;100745.03;;;23.60;57.05
42761;BME280;31672;47.638;19.026;2023-09-08T08:46:49;100744.06;;;23.77;56.24
42761;BME280;31672;47.638;19.026;2023-09-08T08:51:54;100739.50;;;23.95;54.37
42761;BME280;31672;47.638;19.026;2023-09-08T08:56:58;100738.63;;;24.06;53.75
42761;BME280;31672;47.638;19.026;2023-09-08T09:02:03;100723.47;;;24.10;53.81
42761;BME280;31672;47.638;19.026;2023-09-08T09:07:08;100726.31;;;24.32;53.12
42761;BME280;31672;47.638;19.026;2023-09-08T09:12:11;100721.09;;;24.59;53.06
42761;BME280;31672;47.638;19.026;2023-09-08T09:17:16;100723.47;;;24.72;51.38
42761;BME280;31672;47.638;19.026;2023-09-08T09:22:20;100715.44;;;24.82;50.68
42761;BME280;31672;47.638;19.026;2023-09-08T09:27:25;100717.84;;;24.96;49.59
42761;BME280;31672;47.638;19.026;2023-09-08T09:32:29;100715.50;;;25.04;49.25
42761;BME280;31672;47.638;19.026;2023-09-08T09:37:34;100706.25;;;25.22;47.21
42761;BME280;31672;47.638;19.026;2023-09-08T09:42:39;100701.75;;;25.33;47.67
42761;BME280;31672;47.638;19.026;2023-09-08T09:47:46;100702.94;;;25.64;48.53
42761;BME280;31672;47.638;19.026;2023-09-08T09:52:50;100699.41;;;25.91;46.64
42761;BME280;31672;47.638;19.026;2023-09-08T09:57:58;100702.63;;;26.09;45.36
42761;BME280;31672;47.638;19.026;2023-09-08T10:03:04;100700.94;;;26.08;44.83
42761;BME280;31672;47.638;19.026;2023-09-08T10:08:09;100707.38;;;26.24;44.99
42761;BME280;31672;47.638;19.026;2023-09-08T10:13:13;100684.38;;;26.42;46.61
42761;BME280;31672;47.638;19.026;2023-09-08T10:18:20;100682.13;;;26.71;45.49
42761;BME280;31672;47.638;19.026;2023-09-08T10:23:31;100682.44;;;26.80;43.76
42761;BME280;31672;47.638;19.026;2023-09-08T10:28:37;100672.28;;;26.65;44.08
42761;BME280;31672;47.638;19.026;2023-09-08T10:33:42;100678.63;;;26.81;43.89
42761;BME280;31672;47.638;19.026;2023-09-08T10:38:47;100667.53;;;26.87;44.57
42761;BME280;31672;47.638;19.026;2023-09-08T10:44:02;100667.00;;;26.95;44.92
42761;BME280;31672;47.638;19.026;2023-09-08T10:49:08;100668.78;;;27.17;44.91
42761;BME280;31672;47.638;19.026;2023-09-08T10:54:49;100658.22;;;27.41;44.38
42761;BME280;31672;47.638;19.026;2023-09-08T10:59:58;100650.63;;;27.53;43.29
42761;BME280;31672;47.638;19.026;2023-09-08T11:05:14;100656.06;;;27.63;42.16
42761;BME280;31672;47.638;19.026;2023-09-08T11:10:19;100647.13;;;27.78;41.75
42761;BME280;31672;47.638;19.026;2023-09-08T11:15:23;100636.22;;;27.78;40.01
42761;BME280;31672;47.638;19.026;2023-09-08T11:20:27;100632.38;;;27.94;39.72
42761;BME280;31672;47.638;19.026;2023-09-08T11:25:32;100632.41;;;28.35;38.91
42761;BME280;31672;47.638;19.026;2023-09-08T11:30:36;100626.34;;;28.53;36.95
42761;BME280;31672;47.638;19.026;2023-09-08T11:35:40;100614.88;;;28.57;37.48
42761;BME280;31672;47.638;19.026;2023-09-08T11:40:46;100619.22;;;28.68;36.68
42761;BME280;31672;47.638;19.026;2023-09-08T11:45:50;100614.00;;;28.76;36.69
42761;BME280;31672;47.638;19.026;2023-09-08T11:50:54;100601.09;;;28.97;37.18
42761;BME280;31672;47.638;19.026;2023-09-08T11:55:58;100608.75;;;28.95;36.32
42761;BME280;31672;47.638;19.026;2023-09-08T12:01:04;100601.75;;;29.28;35.32
42761;BME280;31672;47.638;19.026;2023-09-08T12:06:08;100594.59;;;29.32;34.48
42761;BME280;31672;47.638;19.026;2023-09-08T12:11:12;100586.34;;;29.38;34.13
42761;BME280;31672;47.638;19.026;2023-09-08T12:16:20;100584.50;;;29.33;34.15
42761;BME280;31672;47.638;19.026;2023-09-08T12:21:26;100579.56;;;29.30;34.87
42761;BME280;31672;47.638;19.026;2023-09-08T12:26:29;100577.47;;;29.12;34.09
42761;BME280;31672;47.638;19.026;2023-09-08T12:31:33;100567.69;;;29.00;33.26
42761;BME280;31672;47.638;19.026;2023-09-08T12:36:43;100571.34;;;28.75;33.36
42761;BME280;31672;47.638;19.026;2023-09-08T12:41:47;100565.59;;;28.67;33.22
42761;BME280;31672;47.638;19.026;2023-09-08T12:46:51;100556.91;;;28.54;33.32
42761;BME280;31672;47.638;19.026;2023-09-08T12:51:55;100560.81;;;28.33;32.04
42761;BME280;31672;47.638;19.026;2023-09-08T12:56:58;100553.16;;;28.20;32.43
42761;BME280;31672;47.638;19.026;2023-09-08T13:02:02;100543.28;;;28.29;33.44
42761;BME280;31672;47.638;19.026;2023-09-08T13:07:07;100540.03;;;28.17;32.77
42761;BME280;31672;47.638;19.026;2023-09-08T13:12:10;100541.16;;;28.11;33.24
42761;BME280;31672;47.638;19.026;2023-09-08T13:17:16;100538.44;;;27.95;33.59
42761;BME280;31672;47.638;19.026;2023-09-08T13:22:20;100537.91;;;27.83;33.44
42761;BME280;31672;47.638;19.026;2023-09-08T13:27:24;100540.91;;;27.87;33.37
42761;BME280;31672;47.638;19.026;2023-09-08T13:32:28;100535.19;;;27.83;33.02
42761;BME280;31672;47.638;19.026;2023-09-08T13:37:32;100524.78;;;27.80;33.29
42761;BME280;31672;47.638;19.026;2023-09-08T13:42:37;100519.63;;;27.84;33.75
42761;BME280;31672;47.638;19.026;2023-09-08T13:47:41;100516.59;;;27.85;33.63
42761;BME280;31672;47.638;19.026;2023-09-08T13:52:45;100512.50;;;27.98;34.06
42761;BME280;31672;47.638;19.026;2023-09-08T13:57:50;100510.56;;;28.09;34.03
42761;BME280;31672;47.638;19.026;2023-09-08T14:02:58;100497.44;;;28.06;33.19
42761;BME280;31672;47.638;19.026;2023-09-08T14:08:08;100507.84;;;28.04;33.68
42761;BME280;31672;47.638;19.026;2023-09-08T14:13:17;100499.66;;;27.88;33.29
42761;BME280;31672;47.638;19.026;2023-09-08T14:18:21;100484.38;;;27.82;33.88
42761;BME280;31672;47.638;19.026;2023-09-08T14:23:24;100489.00;;;27.87;33.80
42761;BME280;31672;47.638;19.026;2023-09-08T14:28:29;100492.84;;;27.91;33.68
42761;BME280;31672;47.638;19.026;2023-09-08T14:33:35;100485.41;;;28.07;33.95
42761;BME280;31672;47.638;19.026;2023-09-08T14:38:39;100484.00;;;28.24;33.42
42761;BME280;31672;47.638;19.026;2023-09-08T14:43:43;100481.78;;;28.47;32.90
42761;BME280;31672;47.638;19.026;2023-09-08T14:48:46;100475.97;;;28.59;32.13
42761;BME280;31672;47.638;19.026;2023-09-08T14:53:50;100475.91;;;28.74;32.18
42761;BME280;31672;47.638;19.026;2023-09-08T14:58:54;100476.38;;;28.86;31.37
42761;BME280;31672;47.638;19.026;2023-09-08T15:03:57;100477.09;;;29.07;31.34
42761;BME280;31672;47.638;19.026;2023-09-08T15:09:01;100468.91;;;29.41;30.64
42761;BME280;31672;47.638;19.026;2023-09-08T15:14:06;100473.56;;;29.99;29.78
42761;BME280;31672;47.638;19.026;2023-09-08T15:19:10;100472.31;;;30.39;29.28
42761;BME280;31672;47.638;19.026;2023-09-08T15:24:13;100469.66;;;30.77;28.60
42761;BME280;31672;47.638;19.026;2023-09-08T15:29:17;100474.94;;;30.92;28.10
42761;BME280;31672;47.638;19.026;2023-09-08T15:34:23;100460.69;;;31.28;28.03
42761;BME280;31672;47.638;19.026;2023-09-08T15:39:29;100469.88;;;31.37;27.87
42761;BME280;31672;47.638;19.026;2023-09-08T15:44:33;100458.31;;;31.21;27.13
42761;BME280;31672;47.638;19.026;2023-09-08T15:49:37;100466.38;;;31.12;27.33
42761;BME280;31672;47.638;19.026;2023-09-08T15:54:40;100469.59;;;30.82;28.00
42761;BME280;31672;47.638;19.026;2023-09-08T15:59:44;100472.59;;;30.19;27.80
42761;BME280;31672;47.638;19.026;2023-09-08T16:04:48;100467.75;;;29.52;28.96
42761;BME280;31672;47.638;19.026;2023-09-08T16:09:52;100462.69;;;28.91;29.95
42761;BME280;31672;47.638;19.026;2023-09-08T16:14:56;100442.47;;;28.38;30.94
42761;BME280;31672;47.638;19.026;2023-09-08T16:19:59;100461.41;;;28.04;31.98
42761;BME280;31672;47.638;19.026;2023-09-08T16:25:03;100463.66;;;27.71;33.25
42761;BME280;31672;47.638;19.026;2023-09-08T16:30:07;100452.72;;;27.30;34.57
42761;BME280;31672;47.638;19.026;2023-09-08T16:35:12;100453.75;;;26.88;36.13
42761;BME280;31672;47.638;19.026;2023-09-08T16:40:16;100454.16;;;26.50;37.47
42761;BME280;31672;47.638;19.026;2023-09-08T16:45:20;100459.38;;;26.04;38.72
42761;BME280;31672;47.638;19.026;2023-09-08T16:50:24;100473.78;;;25.62;39.89
42761;BME280;31672;47.638;19.026;2023-09-08T16:55:27;100464.09;;;25.12;41.54
42761;BME280;31672;47.638;19.026;2023-09-08T17:00:31;100470.59;;;24.62;41.56
42761;BME280;31672;47.638;19.026;2023-09-08T17:05:35;100471.28;;;24.30;42.26
42761;BME280;31672;47.638;19.026;2023-09-08T17:10:38;100483.03;;;23.97;42.54
42761;BME280;31672;47.638;19.026;2023-09-08T17:15:42;100483.31;;;23.62;43.56
42761;BME280;31672;47.638;19.026;2023-09-08T17:20:46;100484.19;;;23.34;44.18
42761;BME280;31672;47.638;19.026;2023-09-08T17:25:50;100495.06;;;23.06;45.03
42761;BME280;31672;47.638;19.026;2023-09-08T17:30:55;100494.75;;;22.79;46.15
42761;BME280;31672;47.638;19.026;2023-09-08T17:35:58;100503.69;;;22.51;46.22
42761;BME280;31672;47.638;19.026;2023-09-08T17:41:02;100520.81;;;22.28;47.83
42761;BME280;31672;47.638;19.026;2023-09-08T17:46:06;100521.84;;;22.03;47.48
42761;BME280;31672;47.638;19.026;2023-09-08T17:51:10;100521.59;;;21.81;48.89
42761;BME280;31672;47.638;19.026;2023-09-08T17:56:14;100523.09;;;21.54;49.67
42761;BME280;31672;47.638;19.026;2023-09-08T18:01:19;100530.44;;;21.35;50.12
42761;BME280;31672;47.638;19.026;2023-09-08T18:06:23;100541.25;;;21.17;50.45
42761;BME280;31672;47.638;19.026;2023-09-08T18:11:26;100544.75;;;21.05;50.86
42761;BME280;31672;47.638;19.026;2023-09-08T18:16:30;100553.09;;;20.85;51.58
42761;BME280;31672;47.638;19.026;2023-09-08T18:21:37;100554.91;;;20.73;51.58
42761;BME280;31672;47.638;19.026;2023-09-08T18:26:40;100539.63;;;20.49;53.40
42761;BME280;31672;47.638;19.026;2023-09-08T18:31:44;100552.56;;;20.40;53.92
42761;BME280;31672;47.638;19.026;2023-09-08T18:36:48;100551.84;;;20.26;54.26
42761;BME280;31672;47.638;19.026;2023-09-08T18:41:52;100554.47;;;20.15;54.22
42761;BME280;31672;47.638;19.026;2023-09-08T18:46:56;100551.16;;;20.13;54.24
42761;BME280;31672;47.638;19.026;2023-09-08T18:52:00;100543.13;;;20.06;54.24
42761;BME280;31672;47.638;19.026;2023-09-08T18:57:04;100542.09;;;20.07;54.71
42761;BME280;31672;47.638;19.026;2023-09-08T19:02:07;100545.44;;;20.02;54.40
42761;BME280;31672;47.638;19.026;2023-09-08T19:07:11;100555.69;;;19.94;55.40
42761;BME280;31672;47.638;19.026;2023-09-08T19:12:15;100549.78;;;19.78;56.59
42761;BME280;31672;47.638;19.026;2023-09-08T19:17:22;100547.66;;;19.62;57.73
42761;BME280;31672;47.638;19.026;2023-09-08T19:22:26;100544.19;;;19.48;58.52
42761;BME280;31672;47.638;19.026;2023-09-08T19:27:29;100550.72;;;19.34;59.09
42761;BME280;31672;47.638;19.026;2023-09-08T19:32:33;100553.47;;;19.21;59.80
42761;BME280;31672;47.638;19.026;2023-09-08T19:37:38;100559.38;;;19.05;61.20
42761;BME280;31672;47.638;19.026;2023-09-08T19:42:41;100544.13;;;18.85;61.17
42761;BME280;31672;47.638;19.026;2023-09-08T19:47:45;100554.09;;;18.78;62.73
42761;BME280;31672;47.638;19.026;2023-09-08T19:52:49;100558.03;;;18.62;63.57
42761;BME280;31672;47.638;19.026;2023-09-08T19:57:53;100553.53;;;18.50;63.83
42761;BME280;31672;47.638;19.026;2023-09-08T20:02:57;100563.88;;;18.46;64.68
42761;BME280;31672;47.638;19.026;2023-09-08T20:08:01;100556.88;;;18.38;65.31
42761;BME280;31672;47.638;19.026;2023-09-08T20:13:05;100569.06;;;18.41;65.93
42761;BME280;31672;47.638;19.026;2023-09-08T20:18:09;100561.22;;;18.26;66.14
42761;BME280;31672;47.638;19.026;2023-09-08T20:23:13;100566.84;;;18.25;67.23
42761;BME280;31672;47.638;19.026;2023-09-08T20:28:17;100558.97;;;18.16;67.14
42761;BME280;31672;47.638;19.026;2023-09-08T20:33:21;100555.06;;;18.12;67.84
42761;BME280;31672;47.638;19.026;2023-09-08T20:38:25;100560.44;;;18.12;68.32
42761;BME280;31672;47.638;19.026;2023-09-08T20:43:29;100561.25;;;18.13;68.29
42761;BME280;31672;47.638;19.026;2023-09-08T20:48:36;100566.44;;;18.08;68.58
42761;BME280;31672;47.638;19.026;2023-09-08T20:53:41;100556.06;;;17.98;68.68
42761;BME280;31672;47.638;19.026;2023-09-08T20:58:45;100561.66;;;17.97;68.86
42761;BME280;31672;47.638;19.026;2023-09-08T21:03:49;100568.09;;;17.96;68.99
42761;BME280;31672;47.638;19.026;2023-09-08T21:08:53;100555.69;;;17.88;69.77
42761;BME280;31672;47.638;19.026;2023-09-08T21:13:56;100543.91;;;17.76;69.84
42761;BME280;31672;47.638;19.026;2023-09-08T21:19:00;100554.22;;;17.79;69.93
42761;BME280;31672;47.638;19.026;2023-09-08T21:24:04;100546.16;;;17.72;70.00
42761;BME280;31672;47.638;19.026;2023-09-08T21:29:08;100560.44;;;17.73;69.80
42761;BME280;31672;47.638;19.026;2023-09-08T21:34:12;100553.38;;;17.65;70.66
42761;BME280;31672;47.638;19.026;2023-09-08T21:39:15;100540.53;;;17.54;70.71
42761;BME280;31672;47.638;19.026;2023-09-08T21:44:19;100562.66;;;17.56;71.26
42761;BME280;31672;47.638;19.026;2023-09-08T21:49:23;100559.56;;;17.46;71.55
42761;BME280;31672;47.638;19.026;2023-09-08T21:54:27;100557.47;;;17.34;71.51
42761;BME280;31672;47.638;19.026;2023-09-08T21:59:30;100536.78;;;17.22;71.72
42761;BME280;31672;47.638;19.026;2023-09-08T22:04:34;100555.16;;;17.25;72.29
42761;BME280;31672;47.638;19.026;2023-09-08T22:09:38;100552.44;;;17.18;72.90
42761;BME280;31672;47.638;19.026;2023-09-08T22:14:41;100553.25;;;17.12;73.25
42761;BME280;31672;47.638;19.026;2023-09-08T22:19:45;100549.53;;;17.06;73.51
42761;BME280;31672;47.638;19.026;2023-09-08T22:24:48;100542.47;;;16.99;73.13
42761;BME280;31672;47.638;19.026;2023-09-08T22:29:52;100540.38;;;16.94;73.45
42761;BME280;31672;47.638;19.026;2023-09-08T22:34:56;100556.13;;;16.97;73.25
42761;BME280;31672;47.638;19.026;2023-09-08T22:40:00;100541.78;;;16.83;73.71
42761;BME280;31672;47.638;19.026;2023-09-08T22:45:03;100554.81;;;16.87;74.28
42761;BME280;31672;47.638;19.026;2023-09-08T22:50:09;100552.28;;;16.78;74.82
42761;BME280;31672;47.638;19.026;2023-09-08T22:55:15;100556.81;;;16.71;75.34
42761;BME280;31672;47.638;19.026;2023-09-08T23:00:28;100550.34;;;16.66;75.96
42761;BME280;31672;47.638;19.026;2023-09-08T23:05:31;100537.50;;;16.54;75.69
42761;BME280;31672;47.638;19.026;2023-09-08T23:10:35;100553.16;;;16.51;75.91
42761;BME280;31672;47.638;19.026;2023-09-08T23:15:39;100553.31;;;16.43;76.33
42761;BME280;31672;47.638;19.026;2023-09-08T23:20:43;100544.59;;;16.34;77.03
42761;BME280;31672;47.638;19.026;2023-09-08T23:25:48;100552.84;;;16.32;76.66
42761;BME280;31672;47.638;19.026;2023-09-08T23:30:53;100551.34;;;16.23;76.91
42761;BME280;31672;47.638;19.026;2023-09-08T23:35:57;100555.84;;;16.16;78.06
42761;BME280;31672;47.638;19.026;2023-09-08T23:41:00;100551.00;;;16.05;78.15
42761;BME280;31672;47.638;19.026;2023-09-08T23:46:04;100556.13;;;16.00;78.84
42761;BME280;31672;47.638;19.026;2023-09-08T23:51:08;100540.97;;;15.86;79.17
42761;BME280;31672;47.638;19.026;2023-09-08T23:56:12;100550.03;;;15.85;79.68
